sensor_id;sensor_type;location;lat;lon;timestamp;temperature;humidity
31725;DHT22;18306;40.960;14.836;2022-08-03T00:00:54;20.40;97.80
31725;DHT22;18306;40.960;14.836;2022-08-03T00:03:21;20.40;97.80
31725;DHT22;18306;40.960;14.836;2022-08-03T00:05:48;20.40;97.60
31725;DHT22;18306;40.960;14.836;2022-08-03T00:08:16;20.20;98.20
31725;DHT22;18306;40.960;14.836;2022-08-03T00:10:43;20.00;98.70
31725;DHT22;18306;40.960;14.836;2022-08-03T00:13:10;20.00;98.70
31725;DHT22;18306;40.960;14.836;2022-08-03T00:15:40;20.00;98.50
31725;DHT22;18306;40.960;14.836;2022-08-03T00:18:07;20.20;98.40
31725;DHT22;18306;40.960;14.836;2022-08-03T00:20:35;20.20;98.30
31725;DHT22;18306;40.960;14.836;2022-08-03T00:23:03;20.30;98.20
31725;DHT22;18306;40.960;14.836;2022-08-03T00:25:31;20.50;97.70
31725;DHT22;18306;40.960;14.836;2022-08-03T00:27:58;20.60;97.50
31725;DHT22;18306;40.960;14.836;2022-08-03T00:30:25;20.70;97.30
31725;DHT22;18306;40.960;14.836;2022-08-03T00:32:52;20.80;97.00
31725;DHT22;18306;40.960;14.836;2022-08-03T00:35:19;20.50;97.10
31725;DHT22;18306;40.960;14.836;2022-08-03T00:37:46;20.20;98.00
31725;DHT22;18306;40.960;14.836;2022-08-03T00:40:14;19.80;98.70
31725;DHT22;18306;40.960;14.836;2022-08-03T00:42:53;19.80;98.50
31725;DHT22;18306;40.960;14.836;2022-08-03T00:45:23;19.80;98.60
31725;DHT22;18306;40.960;14.836;2022-08-03T00:47:50;19.60;99.30
31725;DHT22;18306;40.960;14.836;2022-08-03T00:50:19;19.70;99.40
31725;DHT22;18306;40.960;14.836;2022-08-03T00:52:49;19.80;99.00
31725;DHT22;18306;40.960;14.836;2022-08-03T00:55:20;19.80;99.00
31725;DHT22;18306;40.960;14.836;2022-08-03T00:57:47;19.90;99.00
31725;DHT22;18306;40.960;14.836;2022-08-03T01:00:18;20.00;98.60
31725;DHT22;18306;40.960;14.836;2022-08-03T01:02:45;19.90;99.00
31725;DHT22;18306;40.960;14.836;2022-08-03T01:05:12;19.70;99.40
31725;DHT22;18306;40.960;14.836;2022-08-03T01:08:07;19.40;99.90
31725;DHT22;18306;40.960;14.836;2022-08-03T01:10:54;19.30;99.90
31725;DHT22;18306;40.960;14.836;2022-08-03T01:16:18;19.70;99.90
31725;DHT22;18306;40.960;14.836;2022-08-03T01:27:02;19.90;99.30
31725;DHT22;18306;40.960;14.836;2022-08-03T01:29:56;19.90;99.00
31725;DHT22;18306;40.960;14.836;2022-08-03T01:32:33;19.90;99.20
31725;DHT22;18306;40.960;14.836;2022-08-03T01:35:09;19.80;99.20
31725;DHT22;18306;40.960;14.836;2022-08-03T01:37:52;19.60;99.30
31725;DHT22;18306;40.960;14.836;2022-08-03T01:40:21;19.20;99.90
31725;DHT22;18306;40.960;14.836;2022-08-03T01:42:51;19.00;99.90
31725;DHT22;18306;40.960;14.836;2022-08-03T01:45:21;19.00;99.90
31725;DHT22;18306;40.960;14.836;2022-08-03T01:47:50;19.00;99.90
31725;DHT22;18306;40.960;14.836;2022-08-03T01:50:21;19.10;99.90
31725;DHT22;18306;40.960;14.836;2022-08-03T01:52:50;19.20;99.90
31725;DHT22;18306;40.960;14.836;2022-08-03T01:55:19;19.20;99.70
31725;DHT22;18306;40.960;14.836;2022-08-03T01:57:48;19.10;99.90
31725;DHT22;18306;40.960;14.836;2022-08-03T02:00:16;19.20;99.90
31725;DHT22;18306;40.960;14.836;2022-08-03T02:02:46;19.40;99.90
31725;DHT22;18306;40.960;14.836;2022-08-03T02:05:15;19.30;99.80
31725;DHT22;18306;40.960;14.836;2022-08-03T02:07:45;19.20;99.90
31725;DHT22;18306;40.960;14.836;2022-08-03T02:10:15;18.90;99.90
31725;DHT22;18306;40.960;14.836;2022-08-03T02:12:45;18.80;99.90
31725;DHT22;18306;40.960;14.836;2022-08-03T02:15:15;18.70;99.90
31725;DHT22;18306;40.960;14.836;2022-08-03T02:17:43;18.50;99.90
31725;DHT22;18306;40.960;14.836;2022-08-03T02:20:12;18.40;99.90
31725;DHT22;18306;40.960;14.836;2022-08-03T02:22:41;18.40;99.90
31725;DHT22;18306;40.960;14.836;2022-08-03T02:25:10;18.70;99.90
31725;DHT22;18306;40.960;14.836;2022-08-03T02:27:48;19.00;99.90
31725;DHT22;18306;40.960;14.836;2022-08-03T02:30:17;19.20;99.90
31725;DHT22;18306;40.960;14.836;2022-08-03T02:32:51;19.30;99.90
31725;DHT22;18306;40.960;14.836;2022-08-03T02:35:22;19.40;99.70
31725;DHT22;18306;40.960;14.836;2022-08-03T02:37:52;19.30;99.90
31725;DHT22;18306;40.960;14.836;2022-08-03T02:40:23;19.00;99.90
31725;DHT22;18306;40.960;14.836;2022-08-03T02:43:01;18.70;99.90
31725;DHT22;18306;40.960;14.836;2022-08-03T02:45:32;18.60;99.90
31725;DHT22;18306;40.960;14.836;2022-08-03T02:48:03;18.80;99.90
31725;DHT22;18306;40.960;14.836;2022-08-03T02:50:32;18.80;99.90
31725;DHT22;18306;40.960;14.836;2022-08-03T02:53:02;19.10;99.90
31725;DHT22;18306;40.960;14.836;2022-08-03T02:55:31;19.20;99.90
31725;DHT22;18306;40.960;14.836;2022-08-03T02:58:01;18.80;99.90
31725;DHT22;18306;40.960;14.836;2022-08-03T03:00:31;18.70;99.90
31725;DHT22;18306;40.960;14.836;2022-08-03T03:03:01;18.60;99.90
31725;DHT22;18306;40.960;14.836;2022-08-03T03:05:30;18.50;99.90
31725;DHT22;18306;40.960;14.836;2022-08-03T03:07:58;18.50;99.90
31725;DHT22;18306;40.960;14.836;2022-08-03T03:10:25;18.70;99.90
31725;DHT22;18306;40.960;14.836;2022-08-03T03:12:55;18.60;99.90
31725;DHT22;18306;40.960;14.836;2022-08-03T03:15:27;18.40;99.90
31725;DHT22;18306;40.960;14.836;2022-08-03T03:17:55;18.40;99.90
31725;DHT22;18306;40.960;14.836;2022-08-03T03:20:24;18.40;99.90
31725;DHT22;18306;40.960;14.836;2022-08-03T03:22:51;18.40;99.90
31725;DHT22;18306;40.960;14.836;2022-08-03T03:25:22;18.40;99.90
31725;DHT22;18306;40.960;14.836;2022-08-03T03:27:52;18.70;99.90
31725;DHT22;18306;40.960;14.836;2022-08-03T03:30:20;18.80;99.90
31725;DHT22;18306;40.960;14.836;2022-08-03T03:32:47;18.80;99.90
31725;DHT22;18306;40.960;14.836;2022-08-03T03:35:14;18.80;99.90
31725;DHT22;18306;40.960;14.836;2022-08-03T03:37:42;18.90;99.90
31725;DHT22;18306;40.960;14.836;2022-08-03T03:40:10;18.70;99.90
31725;DHT22;18306;40.960;14.836;2022-08-03T03:42:37;18.60;99.90
31725;DHT22;18306;40.960;14.836;2022-08-03T03:45:06;18.40;99.90
31725;DHT22;18306;40.960;14.836;2022-08-03T03:47:34;18.40;99.90
31725;DHT22;18306;40.960;14.836;2022-08-03T03:50:03;18.50;99.90
31725;DHT22;18306;40.960;14.836;2022-08-03T03:52:33;18.40;99.90
31725;DHT22;18306;40.960;14.836;2022-08-03T03:55:00;18.30;99.90
31725;DHT22;18306;40.960;14.836;2022-08-03T03:57:28;18.30;99.90
31725;DHT22;18306;40.960;14.836;2022-08-03T03:59:55;18.20;99.90
31725;DHT22;18306;40.960;14.836;2022-08-03T04:02:22;18.00;99.90
31725;DHT22;18306;40.960;14.836;2022-08-03T04:04:49;18.00;99.90
31725;DHT22;18306;40.960;14.836;2022-08-03T04:07:45;18.20;99.90
31725;DHT22;18306;40.960;14.836;2022-08-03T04:10:35;18.30;99.90
31725;DHT22;18306;40.960;14.836;2022-08-03T04:13:23;18.30;99.90
31725;DHT22;18306;40.960;14.836;2022-08-03T04:15:51;18.40;99.90
31725;DHT22;18306;40.960;14.836;2022-08-03T04:18:20;18.40;99.90
31725;DHT22;18306;40.960;14.836;2022-08-03T04:20:49;18.50;99.90
31725;DHT22;18306;40.960;14.836;2022-08-03T04:23:21;18.60;99.90
31725;DHT22;18306;40.960;14.836;2022-08-03T04:25:50;18.70;99.90
31725;DHT22;18306;40.960;14.836;2022-08-03T04:28:19;18.70;99.90
31725;DHT22;18306;40.960;14.836;2022-08-03T04:30:49;18.70;99.90
31725;DHT22;18306;40.960;14.836;2022-08-03T04:33:19;18.50;99.90
31725;DHT22;18306;40.960;14.836;2022-08-03T04:35:47;18.40;99.90
31725;DHT22;18306;40.960;14.836;2022-08-03T04:38:17;18.30;99.90
31725;DHT22;18306;40.960;14.836;2022-08-03T04:40:45;18.30;99.90
31725;DHT22;18306;40.960;14.836;2022-08-03T04:43:15;18.40;99.90
31725;DHT22;18306;40.960;14.836;2022-08-03T04:45:46;18.40;99.90
31725;DHT22;18306;40.960;14.836;2022-08-03T04:48:14;18.50;99.90
31725;DHT22;18306;40.960;14.836;2022-08-03T04:50:42;18.50;99.90
31725;DHT22;18306;40.960;14.836;2022-08-03T04:53:09;18.50;99.90
31725;DHT22;18306;40.960;14.836;2022-08-03T04:55:36;18.50;99.90
31725;DHT22;18306;40.960;14.836;2022-08-03T04:58:03;18.50;99.90
31725;DHT22;18306;40.960;14.836;2022-08-03T05:00:31;18.50;99.90
31725;DHT22;18306;40.960;14.836;2022-08-03T05:02:58;18.50;99.90
31725;DHT22;18306;40.960;14.836;2022-08-03T05:05:29;18.70;99.90
31725;DHT22;18306;40.960;14.836;2022-08-03T05:07:56;18.80;99.90
31725;DHT22;18306;40.960;14.836;2022-08-03T05:10:23;18.90;99.90
31725;DHT22;18306;40.960;14.836;2022-08-03T05:12:50;19.00;99.90
31725;DHT22;18306;40.960;14.836;2022-08-03T05:15:17;19.00;99.90
31725;DHT22;18306;40.960;14.836;2022-08-03T05:17:44;18.90;99.90
31725;DHT22;18306;40.960;14.836;2022-08-03T05:20:12;19.00;99.90
31725;DHT22;18306;40.960;14.836;2022-08-03T05:22:38;19.00;99.90
31725;DHT22;18306;40.960;14.836;2022-08-03T05:25:06;19.00;99.90
31725;DHT22;18306;40.960;14.836;2022-08-03T05:27:33;19.20;99.90
31725;DHT22;18306;40.960;14.836;2022-08-03T05:30:00;19.30;99.90
31725;DHT22;18306;40.960;14.836;2022-08-03T05:32:27;19.40;99.90
31725;DHT22;18306;40.960;14.836;2022-08-03T05:34:58;19.70;99.90
31725;DHT22;18306;40.960;14.836;2022-08-03T05:37:32;20.00;99.90
31725;DHT22;18306;40.960;14.836;2022-08-03T05:40:06;20.70;99.90
31725;DHT22;18306;40.960;14.836;2022-08-03T05:42:36;22.00;99.10
31725;DHT22;18306;40.960;14.836;2022-08-03T05:45:04;22.60;97.50
31725;DHT22;18306;40.960;14.836;2022-08-03T05:47:41;23.30;97.10
31725;DHT22;18306;40.960;14.836;2022-08-03T05:50:11;23.80;95.60
31725;DHT22;18306;40.960;14.836;2022-08-03T05:52:39;24.90;94.90
31725;DHT22;18306;40.960;14.836;2022-08-03T05:55:09;26.10;92.80
31725;DHT22;18306;40.960;14.836;2022-08-03T05:57:37;26.70;91.60
31725;DHT22;18306;40.960;14.836;2022-08-03T06:00:09;27.30;92.20
31725;DHT22;18306;40.960;14.836;2022-08-03T06:02:43;27.70;90.60
31725;DHT22;18306;40.960;14.836;2022-08-03T06:05:12;28.00;90.40
31725;DHT22;18306;40.960;14.836;2022-08-03T06:07:48;28.50;89.60
31725;DHT22;18306;40.960;14.836;2022-08-03T06:10:25;29.10;88.60
31725;DHT22;18306;40.960;14.836;2022-08-03T06:12:55;29.90;85.20
31725;DHT22;18306;40.960;14.836;2022-08-03T06:15:22;30.70;82.80
31725;DHT22;18306;40.960;14.836;2022-08-03T06:17:50;30.60;83.20
31725;DHT22;18306;40.960;14.836;2022-08-03T06:20:20;30.70;83.40
31725;DHT22;18306;40.960;14.836;2022-08-03T06:22:47;30.80;84.30
31725;DHT22;18306;40.960;14.836;2022-08-03T06:25:19;31.10;83.20
31725;DHT22;18306;40.960;14.836;2022-08-03T06:27:46;31.10;81.60
31725;DHT22;18306;40.960;14.836;2022-08-03T06:30:13;31.50;81.30
31725;DHT22;18306;40.960;14.836;2022-08-03T06:32:42;31.90;81.50
31725;DHT22;18306;40.960;14.836;2022-08-03T06:35:09;31.10;81.20
31725;DHT22;18306;40.960;14.836;2022-08-03T06:37:44;29.50;83.50
31725;DHT22;18306;40.960;14.836;2022-08-03T06:40:13;28.60;85.90
31725;DHT22;18306;40.960;14.836;2022-08-03T06:42:40;28.10;87.40
31725;DHT22;18306;40.960;14.836;2022-08-03T06:45:11;27.90;88.70
31725;DHT22;18306;40.960;14.836;2022-08-03T06:47:39;27.90;89.80
31725;DHT22;18306;40.960;14.836;2022-08-03T06:50:07;27.90;88.50
31725;DHT22;18306;40.960;14.836;2022-08-03T06:52:34;27.70;88.90
31725;DHT22;18306;40.960;14.836;2022-08-03T06:55:11;27.80;88.40
31725;DHT22;18306;40.960;14.836;2022-08-03T06:57:38;27.80;89.00
31725;DHT22;18306;40.960;14.836;2022-08-03T07:00:05;27.90;88.40
31725;DHT22;18306;40.960;14.836;2022-08-03T07:02:34;28.10;88.10
31725;DHT22;18306;40.960;14.836;2022-08-03T07:05:01;28.10;88.90
31725;DHT22;18306;40.960;14.836;2022-08-03T07:07:29;28.40;88.30
31725;DHT22;18306;40.960;14.836;2022-08-03T07:09:56;28.50;88.70
31725;DHT22;18306;40.960;14.836;2022-08-03T07:12:23;28.70;87.90
31725;DHT22;18306;40.960;14.836;2022-08-03T07:14:50;28.80;88.10
31725;DHT22;18306;40.960;14.836;2022-08-03T07:17:20;28.90;87.90
31725;DHT22;18306;40.960;14.836;2022-08-03T07:19:48;29.00;87.70
31725;DHT22;18306;40.960;14.836;2022-08-03T07:22:15;29.10;86.80
31725;DHT22;18306;40.960;14.836;2022-08-03T07:24:42;29.10;86.10
31725;DHT22;18306;40.960;14.836;2022-08-03T07:27:32;28.80;85.90
31725;DHT22;18306;40.960;14.836;2022-08-03T07:30:00;28.70;84.40
31725;DHT22;18306;40.960;14.836;2022-08-03T07:32:29;28.70;84.80
31725;DHT22;18306;40.960;14.836;2022-08-03T07:34:57;28.80;84.40
31725;DHT22;18306;40.960;14.836;2022-08-03T07:37:24;29.00;82.10
31725;DHT22;18306;40.960;14.836;2022-08-03T07:39:51;29.20;80.90
31725;DHT22;18306;40.960;14.836;2022-08-03T07:42:18;29.30;80.40
31725;DHT22;18306;40.960;14.836;2022-08-03T07:44:46;29.70;80.80
31725;DHT22;18306;40.960;14.836;2022-08-03T07:47:19;30.00;78.10
31725;DHT22;18306;40.960;14.836;2022-08-03T07:49:49;30.00;77.80
31725;DHT22;18306;40.960;14.836;2022-08-03T07:52:16;30.00;79.00
31725;DHT22;18306;40.960;14.836;2022-08-03T07:55:03;30.40;78.80
31725;DHT22;18306;40.960;14.836;2022-08-03T07:57:32;30.90;77.10
31725;DHT22;18306;40.960;14.836;2022-08-03T07:59:59;30.70;75.20
31725;DHT22;18306;40.960;14.836;2022-08-03T08:02:27;31.10;77.50
31725;DHT22;18306;40.960;14.836;2022-08-03T08:04:54;30.90;76.40
31725;DHT22;18306;40.960;14.836;2022-08-03T08:07:21;31.00;77.00
31725;DHT22;18306;40.960;14.836;2022-08-03T08:09:48;31.10;77.20
31725;DHT22;18306;40.960;14.836;2022-08-03T08:12:15;31.20;75.80
31725;DHT22;18306;40.960;14.836;2022-08-03T08:14:43;31.20;75.50
31725;DHT22;18306;40.960;14.836;2022-08-03T08:17:13;31.30;75.30
31725;DHT22;18306;40.960;14.836;2022-08-03T08:19:40;31.10;76.10
31725;DHT22;18306;40.960;14.836;2022-08-03T08:22:07;31.00;74.80
31725;DHT22;18306;40.960;14.836;2022-08-03T08:24:35;31.00;75.10
31725;DHT22;18306;40.960;14.836;2022-08-03T08:27:02;30.80;78.00
31725;DHT22;18306;40.960;14.836;2022-08-03T08:29:32;30.60;79.00
31725;DHT22;18306;40.960;14.836;2022-08-03T08:32:02;30.80;77.60
31725;DHT22;18306;40.960;14.836;2022-08-03T08:34:29;30.70;77.00
31725;DHT22;18306;40.960;14.836;2022-08-03T08:36:58;30.60;79.00
31725;DHT22;18306;40.960;14.836;2022-08-03T08:39:25;30.50;76.00
31725;DHT22;18306;40.960;14.836;2022-08-03T08:41:52;30.70;76.70
31725;DHT22;18306;40.960;14.836;2022-08-03T08:44:23;30.90;75.30
31725;DHT22;18306;40.960;14.836;2022-08-03T08:46:56;30.90;74.80
31725;DHT22;18306;40.960;14.836;2022-08-03T08:49:32;30.80;76.90
31725;DHT22;18306;40.960;14.836;2022-08-03T08:52:05;30.60;75.90
31725;DHT22;18306;40.960;14.836;2022-08-03T08:54:35;30.70;75.80
31725;DHT22;18306;40.960;14.836;2022-08-03T08:57:03;30.80;75.60
31725;DHT22;18306;40.960;14.836;2022-08-03T08:59:35;30.90;76.90
31725;DHT22;18306;40.960;14.836;2022-08-03T09:02:03;31.10;74.60
31725;DHT22;18306;40.960;14.836;2022-08-03T09:04:30;31.30;76.20
31725;DHT22;18306;40.960;14.836;2022-08-03T09:06:58;31.10;75.10
31725;DHT22;18306;40.960;14.836;2022-08-03T09:09:25;31.10;75.60
31725;DHT22;18306;40.960;14.836;2022-08-03T09:11:52;31.20;75.60
31725;DHT22;18306;40.960;14.836;2022-08-03T09:14:19;31.40;75.20
31725;DHT22;18306;40.960;14.836;2022-08-03T09:16:58;31.30;75.20
31725;DHT22;18306;40.960;14.836;2022-08-03T09:19:27;31.00;76.80
31725;DHT22;18306;40.960;14.836;2022-08-03T09:22:15;31.20;75.50
31725;DHT22;18306;40.960;14.836;2022-08-03T09:24:59;31.40;75.50
31725;DHT22;18306;40.960;14.836;2022-08-03T09:27:28;31.40;74.80
31725;DHT22;18306;40.960;14.836;2022-08-03T09:29:58;31.40;76.10
31725;DHT22;18306;40.960;14.836;2022-08-03T09:32:25;31.50;76.00
31725;DHT22;18306;40.960;14.836;2022-08-03T09:35:46;31.60;75.90
31725;DHT22;18306;40.960;14.836;2022-08-03T09:40:45;31.00;75.40
31725;DHT22;18306;40.960;14.836;2022-08-03T09:43:13;31.00;74.20
31725;DHT22;18306;40.960;14.836;2022-08-03T09:45:41;30.80;75.40
31725;DHT22;18306;40.960;14.836;2022-08-03T09:48:24;30.90;73.90
31725;DHT22;18306;40.960;14.836;2022-08-03T09:50:58;31.00;74.20
31725;DHT22;18306;40.960;14.836;2022-08-03T09:53:26;30.90;75.30
31725;DHT22;18306;40.960;14.836;2022-08-03T09:55:59;30.80;76.00
31725;DHT22;18306;40.960;14.836;2022-08-03T09:58:29;30.80;75.80
31725;DHT22;18306;40.960;14.836;2022-08-03T10:00:59;31.00;75.30
31725;DHT22;18306;40.960;14.836;2022-08-03T10:03:28;31.10;75.10
31725;DHT22;18306;40.960;14.836;2022-08-03T10:05:56;31.10;74.80
31725;DHT22;18306;40.960;14.836;2022-08-03T10:08:23;31.10;74.50
31725;DHT22;18306;40.960;14.836;2022-08-03T10:10:52;30.80;76.20
31725;DHT22;18306;40.960;14.836;2022-08-03T10:13:21;30.90;75.10
31725;DHT22;18306;40.960;14.836;2022-08-03T10:15:49;30.00;77.20
31725;DHT22;18306;40.960;14.836;2022-08-03T10:18:20;30.20;77.20
31725;DHT22;18306;40.960;14.836;2022-08-03T10:21:03;30.70;77.60
31725;DHT22;18306;40.960;14.836;2022-08-03T10:23:51;30.80;76.30
31725;DHT22;18306;40.960;14.836;2022-08-03T10:29:28;31.30;74.70
31725;DHT22;18306;40.960;14.836;2022-08-03T10:37:33;31.40;71.70
31725;DHT22;18306;40.960;14.836;2022-08-03T10:40:05;31.50;70.40
31725;DHT22;18306;40.960;14.836;2022-08-03T10:42:42;31.70;71.90
31725;DHT22;18306;40.960;14.836;2022-08-03T10:45:26;31.80;70.60
31725;DHT22;18306;40.960;14.836;2022-08-03T10:47:55;31.90;71.00
31725;DHT22;18306;40.960;14.836;2022-08-03T10:50:24;31.70;72.40
31725;DHT22;18306;40.960;14.836;2022-08-03T10:53:02;31.90;71.60
31725;DHT22;18306;40.960;14.836;2022-08-03T11:01:08;32.00;71.90
31725;DHT22;18306;40.960;14.836;2022-08-03T11:06:21;32.00;71.60
31725;DHT22;18306;40.960;14.836;2022-08-03T11:11:38;31.70;72.80
31725;DHT22;18306;40.960;14.836;2022-08-03T11:14:11;32.20;71.40
31725;DHT22;18306;40.960;14.836;2022-08-03T11:16:45;32.60;69.10
31725;DHT22;18306;40.960;14.836;2022-08-03T11:19:15;32.80;70.60
31725;DHT22;18306;40.960;14.836;2022-08-03T11:35:29;31.40;73.20
31725;DHT22;18306;40.960;14.836;2022-08-03T11:38:03;31.90;71.30
31725;DHT22;18306;40.960;14.836;2022-08-03T11:40:52;32.40;70.40
31725;DHT22;18306;40.960;14.836;2022-08-03T11:46:10;32.40;69.70
31725;DHT22;18306;40.960;14.836;2022-08-03T11:48:41;32.00;70.60
31725;DHT22;18306;40.960;14.836;2022-08-03T11:51:23;32.20;68.90
31725;DHT22;18306;40.960;14.836;2022-08-03T11:54:00;32.60;67.10
31725;DHT22;18306;40.960;14.836;2022-08-03T11:56:46;32.20;68.90
31725;DHT22;18306;40.960;14.836;2022-08-03T11:59:17;32.40;69.00
31725;DHT22;18306;40.960;14.836;2022-08-03T12:02:12;32.60;66.40
31725;DHT22;18306;40.960;14.836;2022-08-03T12:04:56;32.50;65.80
31725;DHT22;18306;40.960;14.836;2022-08-03T12:07:28;32.40;66.60
31725;DHT22;18306;40.960;14.836;2022-08-03T12:10:06;32.50;63.80
31725;DHT22;18306;40.960;14.836;2022-08-03T12:12:33;32.50;64.90
31725;DHT22;18306;40.960;14.836;2022-08-03T12:15:05;32.50;66.60
31725;DHT22;18306;40.960;14.836;2022-08-03T12:17:33;31.80;68.30
31725;DHT22;18306;40.960;14.836;2022-08-03T12:20:06;32.40;65.40
31725;DHT22;18306;40.960;14.836;2022-08-03T12:22:38;32.60;63.80
31725;DHT22;18306;40.960;14.836;2022-08-03T12:25:09;32.80;63.60
31725;DHT22;18306;40.960;14.836;2022-08-03T12:27:45;33.00;66.60
31725;DHT22;18306;40.960;14.836;2022-08-03T12:30:13;33.50;66.00
31725;DHT22;18306;40.960;14.836;2022-08-03T12:32:42;33.50;64.30
31725;DHT22;18306;40.960;14.836;2022-08-03T12:35:21;33.40;63.40
31725;DHT22;18306;40.960;14.836;2022-08-03T12:37:55;33.20;65.40
31725;DHT22;18306;40.960;14.836;2022-08-03T12:40:24;33.00;65.20
31725;DHT22;18306;40.960;14.836;2022-08-03T12:42:54;32.00;69.20
31725;DHT22;18306;40.960;14.836;2022-08-03T12:45:22;31.40;69.30
31725;DHT22;18306;40.960;14.836;2022-08-03T12:47:56;32.00;65.70
31725;DHT22;18306;40.960;14.836;2022-08-03T12:52:52;32.90;66.00
31725;DHT22;18306;40.960;14.836;2022-08-03T12:55:24;32.50;68.60
31725;DHT22;18306;40.960;14.836;2022-08-03T12:58:04;32.90;68.00
31725;DHT22;18306;40.960;14.836;2022-08-03T13:00:54;32.50;69.40
31725;DHT22;18306;40.960;14.836;2022-08-03T13:03:24;32.30;68.50
31725;DHT22;18306;40.960;14.836;2022-08-03T13:05:54;31.90;69.90
31725;DHT22;18306;40.960;14.836;2022-08-03T13:08:24;31.90;69.50
31725;DHT22;18306;40.960;14.836;2022-08-03T13:10:52;31.40;71.00
31725;DHT22;18306;40.960;14.836;2022-08-03T13:13:38;31.80;69.90
31725;DHT22;18306;40.960;14.836;2022-08-03T13:16:05;32.10;70.90
31725;DHT22;18306;40.960;14.836;2022-08-03T13:18:32;32.20;69.60
31725;DHT22;18306;40.960;14.836;2022-08-03T13:21:05;32.70;66.10
31725;DHT22;18306;40.960;14.836;2022-08-03T13:23:35;33.00;64.70
31725;DHT22;18306;40.960;14.836;2022-08-03T13:26:02;33.00;71.00
31725;DHT22;18306;40.960;14.836;2022-08-03T13:28:29;33.00;72.60
31725;DHT22;18306;40.960;14.836;2022-08-03T13:30:57;32.90;72.30
31725;DHT22;18306;40.960;14.836;2022-08-03T13:33:26;33.00;72.80
31725;DHT22;18306;40.960;14.836;2022-08-03T13:35:54;33.00;73.30
31725;DHT22;18306;40.960;14.836;2022-08-03T13:38:23;32.90;73.80
31725;DHT22;18306;40.960;14.836;2022-08-03T13:41:00;32.90;73.70
31725;DHT22;18306;40.960;14.836;2022-08-03T13:43:33;33.00;72.80
31725;DHT22;18306;40.960;14.836;2022-08-03T13:46:04;33.10;73.20
31725;DHT22;18306;40.960;14.836;2022-08-03T13:48:31;33.10;72.10
31725;DHT22;18306;40.960;14.836;2022-08-03T13:50:58;33.20;69.20
31725;DHT22;18306;40.960;14.836;2022-08-03T13:53:26;33.00;70.50
31725;DHT22;18306;40.960;14.836;2022-08-03T13:55:53;32.40;72.90
31725;DHT22;18306;40.960;14.836;2022-08-03T13:58:26;32.40;72.60
31725;DHT22;18306;40.960;14.836;2022-08-03T14:00:53;32.40;73.00
31725;DHT22;18306;40.960;14.836;2022-08-03T14:03:20;32.70;71.80
31725;DHT22;18306;40.960;14.836;2022-08-03T14:05:49;32.90;70.30
31725;DHT22;18306;40.960;14.836;2022-08-03T14:08:16;33.20;70.60
31725;DHT22;18306;40.960;14.836;2022-08-03T14:10:44;33.10;69.00
31725;DHT22;18306;40.960;14.836;2022-08-03T14:13:12;33.20;69.40
31725;DHT22;18306;40.960;14.836;2022-08-03T14:15:43;33.20;69.80
31725;DHT22;18306;40.960;14.836;2022-08-03T14:18:12;32.80;70.00
31725;DHT22;18306;40.960;14.836;2022-08-03T14:20:40;32.70;72.60
31725;DHT22;18306;40.960;14.836;2022-08-03T14:23:08;32.60;71.40
31725;DHT22;18306;40.960;14.836;2022-08-03T14:25:35;32.60;71.00
31725;DHT22;18306;40.960;14.836;2022-08-03T14:28:02;32.60;72.50
31725;DHT22;18306;40.960;14.836;2022-08-03T14:30:36;32.40;72.20
31725;DHT22;18306;40.960;14.836;2022-08-03T14:33:03;32.40;72.70
31725;DHT22;18306;40.960;14.836;2022-08-03T14:38:21;32.30;75.70
31725;DHT22;18306;40.960;14.836;2022-08-03T14:40:49;32.10;76.10
31725;DHT22;18306;40.960;14.836;2022-08-03T14:43:18;32.00;77.00
31725;DHT22;18306;40.960;14.836;2022-08-03T14:45:51;32.00;76.70
31725;DHT22;18306;40.960;14.836;2022-08-03T14:48:22;32.10;78.20
31725;DHT22;18306;40.960;14.836;2022-08-03T14:50:50;31.90;78.80
31725;DHT22;18306;40.960;14.836;2022-08-03T14:53:21;32.00;78.70
31725;DHT22;18306;40.960;14.836;2022-08-03T14:55:49;32.00;78.80
31725;DHT22;18306;40.960;14.836;2022-08-03T14:58:19;32.10;78.60
31725;DHT22;18306;40.960;14.836;2022-08-03T15:00:46;32.20;77.90
31725;DHT22;18306;40.960;14.836;2022-08-03T15:03:15;32.20;78.20
31725;DHT22;18306;40.960;14.836;2022-08-03T15:05:54;32.00;78.00
31725;DHT22;18306;40.960;14.836;2022-08-03T15:08:23;31.80;77.60
31725;DHT22;18306;40.960;14.836;2022-08-03T15:10:52;31.90;76.20
31725;DHT22;18306;40.960;14.836;2022-08-03T15:13:20;31.90;76.50
31725;DHT22;18306;40.960;14.836;2022-08-03T15:15:48;31.40;77.60
31725;DHT22;18306;40.960;14.836;2022-08-03T15:18:15;31.30;79.00
31725;DHT22;18306;40.960;14.836;2022-08-03T15:20:42;31.60;78.90
31725;DHT22;18306;40.960;14.836;2022-08-03T15:23:10;31.50;79.30
31725;DHT22;18306;40.960;14.836;2022-08-03T15:25:37;31.30;79.00
31725;DHT22;18306;40.960;14.836;2022-08-03T15:28:04;31.20;80.10
31725;DHT22;18306;40.960;14.836;2022-08-03T15:30:31;31.00;82.60
31725;DHT22;18306;40.960;14.836;2022-08-03T15:33:24;30.80;83.60
31725;DHT22;18306;40.960;14.836;2022-08-03T15:35:51;30.60;85.90
31725;DHT22;18306;40.960;14.836;2022-08-03T15:38:19;30.10;90.10
31725;DHT22;18306;40.960;14.836;2022-08-03T15:40:48;29.50;93.20
31725;DHT22;18306;40.960;14.836;2022-08-03T15:43:15;28.70;96.40
31725;DHT22;18306;40.960;14.836;2022-08-03T15:45:42;28.00;99.90
31725;DHT22;18306;40.960;14.836;2022-08-03T15:48:10;26.90;99.90
31725;DHT22;18306;40.960;14.836;2022-08-03T15:50:37;25.60;99.90
31725;DHT22;18306;40.960;14.836;2022-08-03T15:53:05;25.80;99.90
31725;DHT22;18306;40.960;14.836;2022-08-03T15:55:32;25.40;99.90
31725;DHT22;18306;40.960;14.836;2022-08-03T15:57:59;25.10;99.90
31725;DHT22;18306;40.960;14.836;2022-08-03T16:00:26;24.80;99.90
31725;DHT22;18306;40.960;14.836;2022-08-03T16:02:53;24.80;99.90
31725;DHT22;18306;40.960;14.836;2022-08-03T16:05:23;25.10;99.90
31725;DHT22;18306;40.960;14.836;2022-08-03T16:07:52;25.00;99.90
31725;DHT22;18306;40.960;14.836;2022-08-03T16:10:20;24.60;99.90
31725;DHT22;18306;40.960;14.836;2022-08-03T16:12:48;24.80;99.90
31725;DHT22;18306;40.960;14.836;2022-08-03T16:15:16;24.80;99.90
31725;DHT22;18306;40.960;14.836;2022-08-03T16:17:43;24.50;99.90
31725;DHT22;18306;40.960;14.836;2022-08-03T16:20:11;24.80;99.90
31725;DHT22;18306;40.960;14.836;2022-08-03T16:22:43;25.00;99.90
31725;DHT22;18306;40.960;14.836;2022-08-03T16:25:11;24.90;99.90
31725;DHT22;18306;40.960;14.836;2022-08-03T16:27:38;25.00;99.90
31725;DHT22;18306;40.960;14.836;2022-08-03T16:30:07;25.10;99.90